createdAt,value
2023-04-26T00:04:35.281Z,5.00
2023-04-26T00:09:37.191Z,4.80
2023-04-26T00:14:39.326Z,4.80
2023-04-26T00:19:41.183Z,4.70
2023-04-26T00:24:43.434Z,4.70
2023-04-26T00:29:45.298Z,4.80
2023-04-26T00:34:47.227Z,4.80
2023-04-26T00:39:49.238Z,4.70
2023-04-26T00:44:55.211Z,4.60
2023-04-26T00:49:57.346Z,4.60
2023-04-26T00:54:59.301Z,4.60
2023-04-26T01:00:01.264Z,4.60
2023-04-26T01:05:03.060Z,4.40
2023-04-26T01:10:06.428Z,4.50
2023-04-26T01:15:08.750Z,4.40
2023-04-26T01:20:13.640Z,4.10
2023-04-26T01:25:17.951Z,4.10
2023-04-26T01:30:19.777Z,4.20
2023-04-26T01:35:21.902Z,4.20
2023-04-26T01:40:23.690Z,4.20
2023-04-26T01:45:25.654Z,4.10
2023-04-26T01:50:27.415Z,4.10
2023-04-26T01:55:29.279Z,3.80
2023-04-26T02:00:31.298Z,4.00
2023-04-26T02:05:33.068Z,3.90
2023-04-26T02:10:34.951Z,3.80
2023-04-26T02:15:37.324Z,4.00
2023-04-26T02:20:45.995Z,3.70
2023-04-26T02:25:49.106Z,3.90
2023-04-26T02:30:50.854Z,3.90
2023-04-26T02:35:52.673Z,4.00
2023-04-26T02:41:01.731Z,3.70
2023-04-26T02:46:06.748Z,3.70
2023-04-26T02:51:08.808Z,3.50
2023-04-26T02:56:11.620Z,3.50
2023-04-26T03:01:14.655Z,3.70
2023-04-26T03:06:16.459Z,3.60
2023-04-26T03:11:18.244Z,3.60
2023-04-26T03:16:23.442Z,3.60
2023-04-26T03:21:25.340Z,3.50
2023-04-26T03:26:27.160Z,3.60
2023-04-26T03:31:28.937Z,3.60
2023-04-26T03:36:30.920Z,3.70
2023-04-26T03:41:33.614Z,3.50
2023-04-26T03:46:35.576Z,3.50
2023-04-26T03:51:37.509Z,3.50
2023-04-26T03:56:40.151Z,3.50
2023-04-26T04:01:42.170Z,3.40
2023-04-26T04:06:44.030Z,3.20
2023-04-26T04:11:47.560Z,3.40
2023-04-26T04:16:49.517Z,3.40
2023-04-26T04:21:51.816Z,3.30
2023-04-26T04:26:54.509Z,3.10
2023-04-26T04:31:56.615Z,3.20
2023-04-26T04:36:58.366Z,3.50
2023-04-26T04:42:00.450Z,3.50
2023-04-26T04:47:02.321Z,3.30
2023-04-26T04:52:04.893Z,3.30
2023-04-26T04:57:06.777Z,3.40
2023-04-26T05:02:08.564Z,3.40
2023-04-26T05:07:10.577Z,3.50
2023-04-26T05:12:12.657Z,3.60
2023-04-26T05:17:14.430Z,3.90
2023-04-26T05:22:18.689Z,3.90
2023-04-26T05:27:20.778Z,4.10
2023-04-26T05:32:22.542Z,4.20
2023-04-26T05:37:24.411Z,4.30
2023-04-26T05:42:26.193Z,4.30
2023-04-26T05:47:28.077Z,4.40
2023-04-26T05:52:29.913Z,4.50
2023-04-26T05:57:32.049Z,4.60
2023-04-26T06:02:34.037Z,4.60
2023-04-26T06:07:36.097Z,4.70
2023-04-26T06:12:37.994Z,4.90
2023-04-26T06:17:41.643Z,5.10
2023-04-26T06:22:43.655Z,5.40
2023-04-26T06:27:45.516Z,5.50
2023-04-26T06:32:48.430Z,5.80
2023-04-26T06:37:50.665Z,6.00
2023-04-26T06:42:52.571Z,6.10
2023-04-26T06:47:54.746Z,6.10
2023-04-26T06:52:56.698Z,6.20
2023-04-26T06:57:58.456Z,6.40
2023-04-26T07:03:00.425Z,6.50
2023-04-26T07:08:02.297Z,6.60
2023-04-26T07:13:04.059Z,6.70
2023-04-26T07:18:05.874Z,6.70
2023-04-26T07:23:07.731Z,6.80
2023-04-26T07:28:09.464Z,7.30
2023-04-26T07:33:11.292Z,7.80
2023-04-26T07:38:19.572Z,7.60
2023-04-26T07:43:21.686Z,7.50
2023-04-26T07:48:23.459Z,7.50
2023-04-26T07:53:25.259Z,7.80
2023-04-26T07:58:27.029Z,7.90
2023-04-26T08:03:28.970Z,8.00
2023-04-26T08:08:32.302Z,8.10
2023-04-26T08:13:34.124Z,8.00
2023-04-26T08:18:36.072Z,8.40
2023-04-26T08:23:37.895Z,8.40
2023-04-26T08:28:40.205Z,8.30
2023-04-26T08:33:42.159Z,8.70
2023-04-26T08:38:43.960Z,9.00
2023-04-26T08:43:45.899Z,9.00
2023-04-26T08:48:57.548Z,8.80
2023-04-26T08:54:02.733Z,9.10
2023-04-26T08:59:05.968Z,9.10
2023-04-26T09:04:08.690Z,9.20
2023-04-26T09:09:13.705Z,9.50
2023-04-26T09:14:15.662Z,10.40
2023-04-26T09:19:17.539Z,10.30
2023-04-26T09:24:19.339Z,10.10
2023-04-26T09:29:21.355Z,10.10
2023-04-26T09:34:23.205Z,10.40
2023-04-26T09:39:40.396Z,10.70
2023-04-26T09:44:42.213Z,10.70
2023-04-26T09:49:48.789Z,11.10
2023-04-26T09:54:55.073Z,10.60
2023-04-26T09:59:56.852Z,10.10
2023-04-26T10:05:00.339Z,10.10
2023-04-26T10:10:04.047Z,10.30
2023-04-26T10:15:08.373Z,10.10
2023-04-26T10:20:13.288Z,9.90
2023-04-26T10:25:15.426Z,10.60
2023-04-26T10:30:19.798Z,10.70
2023-04-26T10:35:22.626Z,11.00
2023-04-26T10:40:26.379Z,10.90
2023-04-26T10:45:29.862Z,11.10
2023-04-26T10:50:31.854Z,10.80
2023-04-26T10:55:43.634Z,10.90
2023-04-26T11:01:17.259Z,10.90
2023-04-26T11:06:19.257Z,11.00
2023-04-26T11:11:27.095Z,11.10
2023-04-26T11:16:29.311Z,11.50
2023-04-26T11:21:32.760Z,12.20
2023-04-26T11:26:36.176Z,13.00
2023-04-26T11:31:37.974Z,13.60
2023-04-26T11:36:39.939Z,13.30
2023-04-26T11:41:41.801Z,13.60
2023-04-26T11:46:43.863Z,13.80
2023-04-26T11:51:49.699Z,13.30
2023-04-26T11:56:51.845Z,12.50
2023-04-26T12:01:55.686Z,13.10
2023-04-26T12:06:58.287Z,13.00
2023-04-26T12:12:02.232Z,13.00
2023-04-26T12:17:06.913Z,12.70
2023-04-26T12:22:09.220Z,12.40
2023-04-26T12:27:21.023Z,12.90
2023-04-26T12:32:22.966Z,13.30
2023-04-26T12:37:24.792Z,14.10
2023-04-26T12:42:26.776Z,12.50
2023-04-26T12:47:28.575Z,13.30
2023-04-26T12:52:31.021Z,12.80
2023-04-26T12:57:32.879Z,13.60
2023-04-26T13:02:34.871Z,15.00
2023-04-26T13:07:39.344Z,14.10
2023-04-26T13:12:41.146Z,14.00
2023-04-26T13:17:44.474Z,13.50
2023-04-26T13:22:46.353Z,13.50
2023-04-26T13:27:48.150Z,13.50
2023-04-26T13:32:50.023Z,14.00
2023-04-26T13:37:53.281Z,14.50
2023-04-26T13:42:55.060Z,14.20
2023-04-26T13:47:56.945Z,14.20
2023-04-26T13:52:59.919Z,14.10
2023-04-26T13:58:01.799Z,14.60
2023-04-26T14:03:04.009Z,15.30
2023-04-26T14:08:06.087Z,15.40
2023-04-26T14:13:07.955Z,15.60
2023-04-26T14:18:09.783Z,15.80
2023-04-26T14:23:11.646Z,16.30
2023-04-26T14:28:16.335Z,15.70
2023-04-26T14:33:18.574Z,15.10
2023-04-26T14:38:21.302Z,14.80
2023-04-26T14:43:23.706Z,14.90
2023-04-26T14:48:26.109Z,14.90
2023-04-26T14:53:28.045Z,14.50
2023-04-26T14:58:29.819Z,14.80
2023-04-26T15:03:32.766Z,16.60
2023-04-26T15:08:34.816Z,16.10
2023-04-26T15:13:36.849Z,15.20
2023-04-26T15:18:38.622Z,14.80
2023-04-26T15:23:40.638Z,14.80
2023-04-26T15:28:42.470Z,14.70
2023-04-26T15:33:44.214Z,14.40
2023-04-26T15:38:48.382Z,14.20
2023-04-26T15:43:57.207Z,14.60
2023-04-26T15:48:59.049Z,14.60
2023-04-26T15:54:00.882Z,14.30
2023-04-26T15:59:03.008Z,14.30
2023-04-26T16:04:05.211Z,14.20
2023-04-26T16:09:23.466Z,14.40
2023-04-26T16:14:26.386Z,14.60
2023-04-26T16:19:28.137Z,14.40
2023-04-26T16:24:29.961Z,14.70
2023-04-26T16:29:32.003Z,14.70
2023-04-26T16:34:33.763Z,15.20
2023-04-26T16:39:36.127Z,16.40
2023-04-26T16:44:37.910Z,15.30
2023-04-26T16:49:39.676Z,15.80
2023-04-26T16:54:41.805Z,16.80
2023-04-26T16:59:43.648Z,17.50
2023-04-26T17:04:45.802Z,17.80
2023-04-26T17:09:47.735Z,17.90
2023-04-26T17:14:49.557Z,17.60
2023-04-26T17:19:51.293Z,17.70
2023-04-26T17:24:53.053Z,17.70
2023-04-26T17:29:54.878Z,17.50
2023-04-26T17:34:56.701Z,17.20
2023-04-26T17:39:58.577Z,16.20
2023-04-26T17:45:05.118Z,15.60
2023-04-26T17:50:07.434Z,14.90
2023-04-26T17:55:10.142Z,14.50
2023-04-26T18:00:12.802Z,14.30
2023-04-26T18:05:14.863Z,14.10
2023-04-26T18:10:16.691Z,13.70
2023-04-26T18:15:18.795Z,13.50
2023-04-26T18:20:20.571Z,13.30
2023-04-26T18:25:22.623Z,13.10
2023-04-26T18:30:24.434Z,13.00
2023-04-26T18:35:26.957Z,12.60
2023-04-26T18:40:28.733Z,12.40
2023-04-26T18:45:30.620Z,12.20
2023-04-26T18:50:32.737Z,12.10
2023-04-26T18:55:34.559Z,12.00
2023-04-26T19:00:37.064Z,11.70
2023-04-26T19:05:42.588Z,11.70
2023-04-26T19:10:44.399Z,11.50
2023-04-26T19:15:46.371Z,11.40
2023-04-26T19:20:49.236Z,11.20
2023-04-26T19:25:51.508Z,11.10
2023-04-26T19:30:53.786Z,11.00
2023-04-26T19:35:58.982Z,10.90
2023-04-26T19:41:01.396Z,10.80
2023-04-26T19:46:11.601Z,10.60
2023-04-26T19:51:17.545Z,10.40
2023-04-26T19:56:19.417Z,10.40
2023-04-26T20:01:21.396Z,10.30
2023-04-26T20:06:23.245Z,10.30
2023-04-26T20:11:25.530Z,10.30
2023-04-26T20:16:27.604Z,10.30
2023-04-26T20:21:29.465Z,10.30
2023-04-26T20:26:31.219Z,10.30
2023-04-26T20:31:33.624Z,10.30
2023-04-26T20:36:35.462Z,10.30
2023-04-26T20:41:37.494Z,10.00
2023-04-26T20:46:39.260Z,10.00
2023-04-26T20:51:41.126Z,10.10
2023-04-26T20:56:42.893Z,10.00
2023-04-26T21:01:44.804Z,9.90
2023-04-26T21:06:46.675Z,9.90
2023-04-26T21:11:48.589Z,9.70
2023-04-26T21:16:50.472Z,9.60
2023-04-26T21:21:52.294Z,9.40
2023-04-26T21:26:54.076Z,9.30
2023-04-26T21:31:56.553Z,9.30
2023-04-26T21:36:58.325Z,9.30
2023-04-26T21:42:00.086Z,9.20
2023-04-26T21:47:01.994Z,9.10
2023-04-26T21:52:04.051Z,9.00
2023-04-26T21:57:06.851Z,8.90
2023-04-26T22:02:08.883Z,8.70
2023-04-26T22:07:10.715Z,8.60
2023-04-26T22:12:12.567Z,8.50
2023-04-26T22:17:14.373Z,8.40
2023-04-26T22:22:16.445Z,8.30
2023-04-26T22:27:18.528Z,8.30
2023-04-26T22:32:20.611Z,8.20
2023-04-26T22:37:22.422Z,8.00
2023-04-26T22:42:24.212Z,7.90
2023-04-26T22:47:26.049Z,7.80
2023-04-26T22:52:31.640Z,7.70
2023-04-26T22:57:35.575Z,7.60
2023-04-26T23:02:37.470Z,7.50
2023-04-26T23:07:40.108Z,7.40
2023-04-26T23:12:42.215Z,7.30
2023-04-26T23:17:44.130Z,7.30
2023-04-26T23:22:46.034Z,7.10
2023-04-26T23:27:47.831Z,7.00
2023-04-26T23:32:49.645Z,7.00
2023-04-26T23:37:52.563Z,7.00
2023-04-26T23:42:54.390Z,6.90
2023-04-26T23:47:56.180Z,6.80
2023-04-26T23:52:57.988Z,6.80
2023-04-26T23:57:59.976Z,6.50
